Jacksonville, Missouri
Current Conditions -  °F | °C
As of 8:55 PM on Saturday 25 Oct 2014 (Local Time) from KIRK Reporting Station
Clear Clear  
Wind Chill: 13°   Ceiling: Unl
Heat Index: 13°   Visibility: 10mi
Dew Point:   Wind: 8mph
Humidity: 69%   Direction: 30°NNE
Pressure: 30.05"   Gusts: NA
Location:  39.59°N, 92.47°W
Report Text: KIRK 260155Z AUTO 03007KT 10SM CLR 13/08 A3005 RMK AO2 SLP178 T01330078
Loading
Personal Weather Stations






























Interactive Weather Map
Tropical Storm Tracking
New forecast layout! Learn more

10-Day Weather Forecast

Advertisements
Track Severe Weather on mobile